createdAt,value
2022-10-11T00:00:47.370Z,0.00
2022-10-11T00:01:47.486Z,0.00
2022-10-11T00:02:47.600Z,0.00
2022-10-11T00:03:47.777Z,0.00
2022-10-11T00:04:47.945Z,0.00
2022-10-11T00:05:48.109Z,0.00
2022-10-11T00:06:48.270Z,0.00
2022-10-11T00:07:48.475Z,0.00
2022-10-11T00:08:48.600Z,0.00
2022-10-11T00:09:48.760Z,0.00
2022-10-11T00:10:48.922Z,0.00
2022-10-11T00:11:49.101Z,0.00
2022-10-11T00:12:49.270Z,0.00
2022-10-11T00:13:49.443Z,0.00
2022-10-11T00:14:49.591Z,0.00
2022-10-11T00:15:49.806Z,0.00
2022-10-11T00:16:49.975Z,0.00
2022-10-11T00:17:50.134Z,0.00
2022-10-11T00:18:50.295Z,0.00
2022-10-11T00:19:50.462Z,0.00
2022-10-11T00:20:50.620Z,0.00
2022-10-11T00:21:50.830Z,0.00
2022-10-11T00:22:51.021Z,0.00
2022-10-11T00:23:51.142Z,0.00
2022-10-11T00:24:51.326Z,0.00
2022-10-11T00:25:51.497Z,0.00
2022-10-11T00:26:51.681Z,0.00
2022-10-11T00:27:51.851Z,0.00
2022-10-11T00:28:52.058Z,0.00
2022-10-11T00:29:52.202Z,0.00
2022-10-11T00:30:52.379Z,0.00
2022-10-11T00:31:52.537Z,0.00
2022-10-11T00:32:52.697Z,0.00
2022-10-11T00:33:52.865Z,0.00
2022-10-11T00:34:53.029Z,0.00
2022-10-11T00:35:53.230Z,0.00
2022-10-11T00:36:53.355Z,0.00
2022-10-11T00:37:53.510Z,0.00
2022-10-11T00:38:53.701Z,0.00
2022-10-11T00:39:53.867Z,0.00
2022-10-11T00:40:54.044Z,0.00
2022-10-11T00:41:54.216Z,0.00
2022-10-11T00:42:54.381Z,0.00
2022-10-11T00:43:54.532Z,0.00
2022-10-11T00:44:54.691Z,0.00
2022-10-11T00:45:54.867Z,0.00
2022-10-11T00:46:56.021Z,0.00
2022-10-11T00:47:55.223Z,0.00
2022-10-11T00:48:55.371Z,0.00
2022-10-11T00:49:55.587Z,0.00
2022-10-11T00:50:55.757Z,0.00
2022-10-11T00:51:55.913Z,0.00
2022-10-11T00:52:56.114Z,0.00
2022-10-11T00:53:56.274Z,0.00
2022-10-11T00:54:56.464Z,0.00
2022-10-11T00:55:56.657Z,0.00
2022-10-11T00:56:56.813Z,0.00
2022-10-11T00:57:56.986Z,0.00
2022-10-11T00:58:57.146Z,0.00
2022-10-11T00:59:57.305Z,0.00
2022-10-11T01:00:57.533Z,0.00
2022-10-11T01:01:57.686Z,0.00
2022-10-11T01:02:57.861Z,0.00
2022-10-11T01:03:58.028Z,0.00
2022-10-11T01:05:25.137Z,0.00
2022-10-11T01:05:59.407Z,0.00
2022-10-11T01:06:58.587Z,0.00
2022-10-11T01:07:58.761Z,0.00
2022-10-11T01:08:58.934Z,0.00
2022-10-11T01:09:59.099Z,0.00
2022-10-11T01:10:59.277Z,0.00
2022-10-11T01:11:59.430Z,0.00
2022-10-11T01:12:59.593Z,0.00
2022-10-11T01:13:59.750Z,0.00
2022-10-11T01:14:59.919Z,0.00
2022-10-11T01:16:00.080Z,0.00
2022-10-11T01:17:00.289Z,0.00
2022-10-11T01:18:00.412Z,0.00
2022-10-11T01:19:00.610Z,0.00
2022-10-11T01:20:00.766Z,0.00
2022-10-11T01:21:00.931Z,0.00
2022-10-11T01:22:01.105Z,0.00
2022-10-11T01:23:01.262Z,0.00
2022-10-11T01:24:06.015Z,0.00
2022-10-11T01:25:02.613Z,0.00
2022-10-11T01:26:02.155Z,0.00
2022-10-11T01:27:01.990Z,0.00
2022-10-11T01:28:02.160Z,0.00
2022-10-11T01:29:02.324Z,0.00
2022-10-11T01:30:02.489Z,0.00
2022-10-11T01:31:02.646Z,0.00
2022-10-11T01:32:02.804Z,0.00
2022-10-11T01:33:02.990Z,0.00
2022-10-11T01:34:03.153Z,0.00
2022-10-11T01:35:03.315Z,0.00
2022-10-11T01:36:03.917Z,0.00
2022-10-11T01:37:03.666Z,0.00
2022-10-11T01:38:03.846Z,0.00
2022-10-11T01:39:04.007Z,0.00
2022-10-11T01:40:04.176Z,0.00
2022-10-11T01:41:04.362Z,0.00
2022-10-11T01:42:04.517Z,0.00
2022-10-11T01:43:04.719Z,0.00
2022-10-11T01:44:04.869Z,0.00
2022-10-11T01:45:05.076Z,0.00
2022-10-11T01:46:05.610Z,0.00
2022-10-11T01:47:05.390Z,0.00
2022-10-11T01:48:05.570Z,0.00
2022-10-11T01:49:05.741Z,0.00
2022-10-11T01:50:05.900Z,0.00
2022-10-11T01:51:06.051Z,0.00
2022-10-11T01:52:06.254Z,0.00
2022-10-11T01:53:06.426Z,0.00
2022-10-11T01:54:06.585Z,0.00
2022-10-11T01:55:10.514Z,0.00
2022-10-11T01:56:07.584Z,0.00
2022-10-11T01:57:07.158Z,0.00
2022-10-11T01:58:07.293Z,0.00
2022-10-11T01:59:07.454Z,0.00
2022-10-11T02:00:07.642Z,0.00
2022-10-11T02:01:07.869Z,0.00
2022-10-11T02:02:07.986Z,0.00
2022-10-11T02:03:08.189Z,0.00
2022-10-11T02:04:08.346Z,0.00
2022-10-11T02:05:08.512Z,0.00
2022-10-11T02:06:08.881Z,0.00
2022-10-11T02:07:08.893Z,0.00
2022-10-11T02:08:09.008Z,0.00
2022-10-11T02:09:09.198Z,0.00
2022-10-11T02:10:09.357Z,0.00
2022-10-11T02:11:09.569Z,0.00
2022-10-11T02:12:09.698Z,0.00
2022-10-11T02:13:09.891Z,0.00
2022-10-11T02:14:10.052Z,0.00
2022-10-11T02:15:10.228Z,0.00
2022-10-11T02:16:10.392Z,0.00
2022-10-11T02:17:10.570Z,0.00
2022-10-11T02:18:10.751Z,0.00
2022-10-11T02:19:10.940Z,0.00
2022-10-11T02:20:11.128Z,0.00
2022-10-11T02:21:11.290Z,0.00
2022-10-11T02:22:11.447Z,0.00
2022-10-11T02:23:11.627Z,0.00
2022-10-11T02:24:11.801Z,0.00
2022-10-11T02:25:11.961Z,0.00
2022-10-11T02:26:12.126Z,0.00
2022-10-11T02:27:12.292Z,0.00
2022-10-11T02:28:12.508Z,0.00
2022-10-11T02:29:12.631Z,0.00
2022-10-11T02:30:12.812Z,0.00
2022-10-11T02:31:12.992Z,0.00
2022-10-11T02:32:13.152Z,0.00
2022-10-11T02:33:13.326Z,0.00
2022-10-11T02:34:13.494Z,0.00
2022-10-11T02:35:13.655Z,0.00
2022-10-11T02:36:13.827Z,0.00
2022-10-11T02:37:13.985Z,0.00
2022-10-11T02:38:14.191Z,0.00
2022-10-11T02:39:14.347Z,0.00
2022-10-11T02:40:14.500Z,0.00
2022-10-11T02:41:14.685Z,0.00
2022-10-11T02:42:14.849Z,0.00
2022-10-11T02:43:15.036Z,0.00
2022-10-11T02:44:15.157Z,0.00
2022-10-11T02:45:15.326Z,0.00
2022-10-11T02:46:17.661Z,0.00
2022-10-11T02:47:15.653Z,0.00
2022-10-11T02:48:15.827Z,0.00
2022-10-11T02:49:16.010Z,0.00
2022-10-11T02:50:16.167Z,0.00
2022-10-11T02:51:16.343Z,0.00
2022-10-11T02:52:16.502Z,0.00
2022-10-11T02:53:16.684Z,0.00
2022-10-11T02:54:16.840Z,0.00
2022-10-11T02:55:17.051Z,0.00
2022-10-11T02:56:17.221Z,0.00
2022-10-11T02:57:17.352Z,0.00
2022-10-11T02:58:17.520Z,0.00
2022-10-11T02:59:17.710Z,0.00
2022-10-11T03:00:17.863Z,0.00
2022-10-11T03:01:18.130Z,0.00
2022-10-11T03:02:18.232Z,0.00
2022-10-11T03:03:18.414Z,0.00
2022-10-11T03:04:18.606Z,0.00
2022-10-11T03:05:18.802Z,0.00
2022-10-11T03:06:18.990Z,0.00
2022-10-11T03:07:19.145Z,0.00
2022-10-11T03:08:19.336Z,0.00
2022-10-11T03:09:19.488Z,0.00
2022-10-11T03:10:19.656Z,0.00
2022-10-11T03:11:19.845Z,0.00
2022-10-11T03:12:20.005Z,0.00
2022-10-11T03:13:20.176Z,0.00
2022-10-11T03:14:20.365Z,0.00
2022-10-11T03:15:20.539Z,0.00
2022-10-11T03:16:20.709Z,0.00
2022-10-11T03:17:37.313Z,0.00
2022-10-11T03:18:22.078Z,0.00
2022-10-11T03:19:21.235Z,0.00
2022-10-11T03:20:21.375Z,0.00
2022-10-11T03:21:21.568Z,0.00
2022-10-11T03:22:21.745Z,0.00
2022-10-11T03:23:21.913Z,0.00
2022-10-11T03:24:22.097Z,0.00
2022-10-11T03:25:22.261Z,0.00
2022-10-11T03:26:22.411Z,0.00
2022-10-11T03:27:22.570Z,0.00
2022-10-11T03:28:22.792Z,0.00
2022-10-11T03:29:22.955Z,0.00
2022-10-11T03:30:23.082Z,0.00
2022-10-11T03:31:23.255Z,0.00
2022-10-11T03:32:23.409Z,0.00
2022-10-11T03:33:23.574Z,0.00
2022-10-11T03:34:23.742Z,0.00
2022-10-11T03:35:23.907Z,0.00
2022-10-11T03:36:24.062Z,0.00
2022-10-11T03:37:24.257Z,0.00
2022-10-11T03:38:24.437Z,0.00
2022-10-11T03:39:24.614Z,0.00
2022-10-11T03:40:24.773Z,0.00
2022-10-11T03:41:24.935Z,0.00
2022-10-11T03:42:25.092Z,0.00
2022-10-11T03:43:25.283Z,0.00
2022-10-11T03:44:25.455Z,0.00
2022-10-11T03:45:25.620Z,0.00
2022-10-11T03:46:25.786Z,0.00
2022-10-11T03:47:25.946Z,0.00
2022-10-11T03:48:26.110Z,0.00
2022-10-11T03:49:26.327Z,0.00
2022-10-11T03:50:26.477Z,0.00
2022-10-11T03:51:26.651Z,0.00
2022-10-11T03:52:26.807Z,0.00
2022-10-11T03:53:26.981Z,0.00
2022-10-11T03:54:27.146Z,0.00
2022-10-11T03:55:27.323Z,0.00
2022-10-11T03:56:27.510Z,0.00
2022-10-11T03:57:27.632Z,0.00
2022-10-11T03:58:27.809Z,0.00
2022-10-11T03:59:27.958Z,0.00
2022-10-11T04:00:28.132Z,0.00
2022-10-11T04:01:28.293Z,0.00
2022-10-11T04:02:28.443Z,0.00
2022-10-11T04:03:28.633Z,0.00
2022-10-11T04:04:28.804Z,0.00
2022-10-11T04:05:28.968Z,0.00
2022-10-11T04:06:29.120Z,0.00
2022-10-11T04:07:29.282Z,0.00
2022-10-11T04:08:29.466Z,0.00
2022-10-11T04:09:29.685Z,0.00
2022-10-11T04:10:29.851Z,0.00
2022-10-11T04:11:30.002Z,0.00
2022-10-11T04:12:30.191Z,0.00
2022-10-11T04:13:30.406Z,0.00
2022-10-11T04:14:30.554Z,0.00
2022-10-11T04:15:30.736Z,0.00
2022-10-11T04:16:30.898Z,0.00
2022-10-11T04:17:31.059Z,0.00
2022-10-11T04:18:31.225Z,0.00
2022-10-11T04:19:31.416Z,0.00
2022-10-11T04:20:31.545Z,0.00
2022-10-11T04:21:31.793Z,0.00
2022-10-11T04:22:31.914Z,0.00
2022-10-11T04:23:32.056Z,0.00
2022-10-11T04:24:32.236Z,0.00
2022-10-11T04:25:32.387Z,0.00
2022-10-11T04:26:32.547Z,0.00
2022-10-11T04:27:32.747Z,0.00
2022-10-11T04:28:32.930Z,0.00
2022-10-11T04:29:33.097Z,0.00
2022-10-11T04:30:33.254Z,0.00
2022-10-11T04:31:33.420Z,0.00
2022-10-11T04:33:48.647Z,0.00
2022-10-11T04:34:48.817Z,0.00
2022-10-11T04:35:48.967Z,0.00
2022-10-11T04:36:50.090Z,0.00
2022-10-11T04:37:49.318Z,0.00
2022-10-11T04:38:49.482Z,0.00
2022-10-11T04:39:49.650Z,0.00
2022-10-11T04:40:49.799Z,0.00
2022-10-11T04:41:50.051Z,0.00
2022-10-11T04:42:50.122Z,0.00
2022-10-11T04:43:50.291Z,0.00
2022-10-11T04:44:50.472Z,0.00
2022-10-11T04:45:55.248Z,0.00
2022-10-11T04:46:51.814Z,0.00
2022-10-11T04:47:50.991Z,0.00
2022-10-11T04:48:51.151Z,0.00
2022-10-11T04:49:51.342Z,0.00
2022-10-11T04:50:51.463Z,0.00
2022-10-11T04:51:51.652Z,0.00
2022-10-11T04:52:51.815Z,0.00
2022-10-11T04:53:51.973Z,0.00
2022-10-11T04:54:52.143Z,0.00
2022-10-11T04:55:52.304Z,0.00
2022-10-11T04:56:52.462Z,0.00
2022-10-11T04:57:52.626Z,0.00
2022-10-11T04:58:52.789Z,0.00
2022-10-11T04:59:52.970Z,0.00
2022-10-11T05:00:53.116Z,0.00
2022-10-11T05:01:53.370Z,0.00
2022-10-11T05:02:53.484Z,0.00
2022-10-11T05:03:53.685Z,0.00
2022-10-11T05:04:53.855Z,0.00
2022-10-11T05:05:54.046Z,0.00
2022-10-11T05:06:54.200Z,0.00
2022-10-11T05:07:54.356Z,0.00
2022-10-11T05:08:54.527Z,0.00
2022-10-11T05:09:54.690Z,0.00
2022-10-11T05:10:54.855Z,0.00
2022-10-11T05:11:55.007Z,0.00
2022-10-11T05:12:55.158Z,4.00
2022-10-11T05:13:55.362Z,4.00
2022-10-11T05:14:55.519Z,0.00
2022-10-11T05:15:55.713Z,0.00
2022-10-11T05:16:55.875Z,0.00
2022-10-11T05:17:56.040Z,4.00
2022-10-11T05:18:56.202Z,4.00
2022-10-11T05:19:56.372Z,4.00
2022-10-11T05:20:56.526Z,4.00
2022-10-11T05:21:56.721Z,4.00
2022-10-11T05:22:56.882Z,4.00
2022-10-11T05:23:57.073Z,8.00
2022-10-11T05:24:57.232Z,4.00
2022-10-11T05:25:57.418Z,8.00
2022-10-11T05:27:02.343Z,8.00
2022-10-11T05:27:58.753Z,8.00
2022-10-11T05:28:57.944Z,8.00
2022-10-11T05:29:58.114Z,8.00
2022-10-11T05:30:58.283Z,12.00
2022-10-11T05:31:58.474Z,12.00
2022-10-11T05:32:58.615Z,12.00
2022-10-11T05:33:58.794Z,16.00
2022-10-11T05:34:58.985Z,12.00
2022-10-11T05:35:59.166Z,12.00
2022-10-11T05:36:59.355Z,16.00
2022-10-11T05:37:59.533Z,16.00
2022-10-11T05:38:59.709Z,16.00
2022-10-11T05:39:59.905Z,20.00
2022-10-11T05:41:00.074Z,20.00
2022-10-11T05:42:00.206Z,20.00
2022-10-11T05:43:00.386Z,24.00
2022-10-11T05:44:00.572Z,24.00
2022-10-11T05:45:00.765Z,24.00
2022-10-11T05:46:00.938Z,28.00
2022-10-11T05:47:01.100Z,28.00
2022-10-11T05:48:01.279Z,28.00
2022-10-11T05:49:01.448Z,32.00
2022-10-11T05:50:01.640Z,32.00
2022-10-11T05:51:01.788Z,32.00
2022-10-11T05:52:01.969Z,32.00
2022-10-11T05:53:02.141Z,32.00
2022-10-11T05:54:02.339Z,36.00
2022-10-11T05:55:02.479Z,36.00
2022-10-11T05:56:02.954Z,36.00
2022-10-11T05:57:02.819Z,40.00
2022-10-11T05:58:03.001Z,40.00
2022-10-11T05:59:03.179Z,40.00
2022-10-11T06:00:03.332Z,44.00
2022-10-11T06:01:03.557Z,44.00
2022-10-11T06:02:03.691Z,44.00
2022-10-11T06:03:03.861Z,48.00
2022-10-11T06:04:04.052Z,48.00
2022-10-11T06:05:04.243Z,48.00
2022-10-11T06:06:04.728Z,52.00
2022-10-11T06:07:04.560Z,52.00
2022-10-11T06:08:04.732Z,52.00
2022-10-11T06:09:04.924Z,52.00
2022-10-11T06:10:05.085Z,56.00
2022-10-11T06:11:08.165Z,56.00
2022-10-11T06:12:06.463Z,56.00
2022-10-11T06:13:05.618Z,56.00
2022-10-11T06:14:05.815Z,56.00
2022-10-11T06:15:05.974Z,60.00
2022-10-11T06:16:06.555Z,60.00
2022-10-11T06:17:06.287Z,60.00
2022-10-11T06:18:06.477Z,64.00
2022-10-11T06:19:06.657Z,64.00
2022-10-11T06:20:06.845Z,68.00
2022-10-11T06:21:06.996Z,68.00
2022-10-11T06:22:07.171Z,64.00
2022-10-11T06:23:07.346Z,68.00
2022-10-11T06:24:07.534Z,68.00
2022-10-11T06:25:07.690Z,72.00
2022-10-11T06:26:08.604Z,72.00
2022-10-11T06:27:08.047Z,72.00
2022-10-11T06:28:08.293Z,76.00
2022-10-11T06:29:09.400Z,76.00
2022-10-11T06:30:08.599Z,76.00
2022-10-11T06:31:08.779Z,76.00
2022-10-11T06:32:08.960Z,80.00
2022-10-11T06:33:09.139Z,80.00
2022-10-11T06:34:09.329Z,84.00
2022-10-11T06:35:09.503Z,80.00
2022-10-11T06:36:09.822Z,80.00
2022-10-11T06:37:09.860Z,84.00
2022-10-11T06:38:10.047Z,84.00
2022-10-11T06:39:10.206Z,84.00
2022-10-11T06:40:10.391Z,88.00
2022-10-11T06:41:10.531Z,92.00
2022-10-11T06:42:10.716Z,88.00
2022-10-11T06:43:10.892Z,92.00
2022-10-11T06:44:14.196Z,92.00
2022-10-11T06:45:11.235Z,92.00
2022-10-11T06:46:11.413Z,96.00
2022-10-11T06:47:11.597Z,96.00
2022-10-11T06:48:11.793Z,96.00
2022-10-11T06:49:12.004Z,100.00
2022-10-11T06:50:12.114Z,100.00
2022-10-11T06:51:12.305Z,104.00
2022-10-11T06:52:12.466Z,104.00
2022-10-11T06:53:12.630Z,104.00
2022-10-11T06:54:12.806Z,104.00
2022-10-11T06:55:12.946Z,108.00
2022-10-11T06:56:13.137Z,112.00
2022-10-11T06:57:13.315Z,112.00
2022-10-11T06:58:13.496Z,112.00
2022-10-11T06:59:13.697Z,112.00
2022-10-11T07:00:13.835Z,116.00
2022-10-11T07:01:14.225Z,120.00
2022-10-11T07:02:14.177Z,120.00
2022-10-11T07:03:14.358Z,124.00
2022-10-11T07:04:14.528Z,124.00
2022-10-11T07:05:14.687Z,128.00
2022-10-11T07:06:14.878Z,128.00
2022-10-11T07:07:15.056Z,132.00
2022-10-11T07:08:15.244Z,136.00
2022-10-11T07:09:15.423Z,140.00
2022-10-11T07:10:15.589Z,144.00
2022-10-11T07:11:15.773Z,148.00
2022-10-11T07:12:15.940Z,156.00
2022-10-11T07:13:17.366Z,156.00
2022-10-11T07:14:16.300Z,160.00
2022-10-11T07:15:16.440Z,164.00
2022-10-11T07:16:16.629Z,172.00
2022-10-11T07:17:16.820Z,180.00
2022-10-11T07:18:16.971Z,184.00
2022-10-11T07:19:17.401Z,188.00
2022-10-11T07:20:17.322Z,192.00
2022-10-11T07:21:17.502Z,200.00
2022-10-11T07:22:17.693Z,212.00
2022-10-11T07:23:17.865Z,224.00
2022-10-11T07:24:18.056Z,232.00
2022-10-11T07:25:18.213Z,236.00
2022-10-11T07:26:18.405Z,236.00
2022-10-11T07:27:18.595Z,232.00
2022-10-11T07:28:18.814Z,232.00
2022-10-11T07:29:18.953Z,240.00
2022-10-11T07:30:19.133Z,256.00
2022-10-11T07:31:19.296Z,280.00
2022-10-11T07:32:19.486Z,572.00
2022-10-11T07:33:19.683Z,612.00
2022-10-11T07:34:19.852Z,648.00
2022-10-11T07:35:20.027Z,672.00
2022-10-11T07:36:20.207Z,676.00
2022-10-11T07:37:20.397Z,684.00
2022-10-11T07:38:20.577Z,712.00
2022-10-11T07:39:20.776Z,748.00
2022-10-11T07:40:20.937Z,788.00
2022-10-11T07:41:21.108Z,832.00
2022-10-11T07:42:21.336Z,876.00
2022-10-11T07:43:21.476Z,944.00
2022-10-11T07:44:21.678Z,1040.00
2022-10-11T07:45:21.836Z,1196.00
2022-10-11T07:46:21.988Z,1412.00
2022-10-11T07:47:22.158Z,1632.00
2022-10-11T07:48:22.327Z,1864.00
2022-10-11T07:49:22.521Z,2156.00
2022-10-11T07:50:22.692Z,2460.00
2022-10-11T07:51:22.890Z,2984.00
2022-10-11T07:52:23.051Z,3828.00
2022-10-11T07:53:23.231Z,5184.00
2022-10-11T07:54:23.432Z,7004.00
2022-10-11T07:55:23.602Z,7284.00
2022-10-11T07:56:23.782Z,5148.00
2022-10-11T07:57:23.964Z,3040.00
2022-10-11T07:58:24.142Z,3104.00
2022-10-11T07:59:24.571Z,7420.00
2022-10-11T08:00:24.487Z,14004.00
2022-10-11T08:01:24.720Z,13124.00
2022-10-11T08:02:24.923Z,8872.00
2022-10-11T08:03:24.975Z,5636.00
2022-10-11T08:04:25.175Z,3072.00
2022-10-11T08:05:25.305Z,2008.00
2022-10-11T08:06:25.480Z,1808.00
2022-10-11T08:07:25.657Z,1416.00
2022-10-11T08:08:25.849Z,1384.00
2022-10-11T08:09:26.036Z,1208.00
2022-10-11T08:10:26.186Z,812.00
2022-10-11T08:11:26.373Z,784.00
2022-10-11T08:12:26.559Z,768.00
2022-10-11T08:13:26.739Z,752.00
2022-10-11T08:14:26.930Z,736.00
2022-10-11T08:15:27.073Z,712.00
2022-10-11T08:16:27.262Z,708.00
2022-10-11T08:17:27.449Z,708.00
2022-10-11T08:18:27.630Z,704.00
2022-10-11T08:19:27.840Z,700.00
2022-10-11T08:20:27.979Z,696.00
2022-10-11T08:21:28.162Z,696.00
2022-10-11T08:22:28.348Z,696.00
2022-10-11T08:23:28.542Z,696.00
2022-10-11T08:24:28.691Z,696.00
2022-10-11T08:25:28.891Z,704.00
2022-10-11T08:26:29.033Z,704.00
2022-10-11T08:27:29.208Z,708.00
2022-10-11T08:28:29.467Z,712.00
2022-10-11T08:29:29.553Z,760.00
2022-10-11T08:30:29.775Z,768.00
2022-10-11T08:31:29.933Z,772.00
2022-10-11T08:32:30.114Z,776.00
2022-10-11T08:33:30.333Z,780.00
2022-10-11T08:34:30.455Z,788.00
2022-10-11T08:35:30.645Z,796.00
2022-10-11T08:36:30.831Z,804.00
2022-10-11T08:37:31.015Z,808.00
2022-10-11T08:38:31.207Z,808.00
2022-10-11T08:39:31.384Z,808.00
2022-10-11T08:40:35.148Z,816.00
2022-10-11T08:41:31.747Z,824.00
2022-10-11T08:42:31.916Z,832.00
2022-10-11T08:43:32.118Z,840.00
2022-10-11T08:44:46.420Z,856.00
2022-10-11T08:45:33.440Z,868.00
2022-10-11T08:46:32.599Z,876.00
2022-10-11T08:47:32.780Z,884.00
2022-10-11T08:48:33.000Z,896.00
2022-10-11T08:49:33.160Z,904.00
2022-10-11T08:50:33.305Z,900.00
2022-10-11T08:51:33.480Z,900.00
2022-10-11T08:52:33.664Z,924.00
2022-10-11T08:53:33.841Z,944.00
2022-10-11T08:54:34.027Z,956.00
2022-10-11T08:55:34.186Z,980.00
2022-10-11T08:56:34.343Z,1012.00
2022-10-11T08:57:34.522Z,1064.00
2022-10-11T08:58:34.702Z,1184.00
2022-10-11T08:59:34.874Z,1328.00
2022-10-11T09:00:35.028Z,1288.00
2022-10-11T09:01:35.282Z,1144.00
2022-10-11T09:03:02.917Z,1096.00
2022-10-11T09:03:36.533Z,1140.00
2022-10-11T09:04:35.728Z,1168.00
2022-10-11T09:05:35.896Z,1184.00
2022-10-11T09:06:36.056Z,1196.00
2022-10-11T09:07:36.234Z,1228.00
2022-10-11T09:08:36.396Z,1236.00
2022-10-11T09:09:36.566Z,1232.00
2022-10-11T09:10:36.726Z,1240.00
2022-10-11T09:11:36.936Z,1232.00
2022-10-11T09:12:40.699Z,1232.00
2022-10-11T09:13:37.267Z,1224.00
2022-10-11T09:14:37.439Z,1244.00
2022-10-11T09:15:37.619Z,1280.00
2022-10-11T09:16:37.798Z,1312.00
2022-10-11T09:17:37.958Z,1304.00
2022-10-11T09:18:38.119Z,1328.00
2022-10-11T09:19:38.286Z,1324.00
2022-10-11T09:20:38.599Z,1336.00
2022-10-11T09:21:38.640Z,1344.00
2022-10-11T09:22:38.801Z,1348.00
2022-10-11T09:23:38.961Z,1356.00
2022-10-11T09:24:39.134Z,1352.00
2022-10-11T09:25:39.292Z,1352.00
2022-10-11T09:26:39.451Z,1360.00
2022-10-11T09:28:01.304Z,1368.00
2022-10-11T09:28:40.832Z,1380.00
2022-10-11T09:29:39.943Z,1384.00
2022-10-11T09:30:40.114Z,1396.00
2022-10-11T09:31:40.274Z,1408.00
2022-10-11T09:32:40.445Z,1420.00
2022-10-11T09:33:40.630Z,1420.00
2022-10-11T09:34:40.776Z,1424.00
2022-10-11T09:35:40.936Z,1432.00
2022-10-11T09:36:41.095Z,1440.00
2022-10-11T09:37:41.262Z,1452.00
2022-10-11T09:38:41.426Z,1392.00
2022-10-11T09:39:41.590Z,1456.00
2022-10-11T09:40:41.746Z,1484.00
2022-10-11T09:41:41.938Z,1568.00
2022-10-11T09:42:42.086Z,1592.00
2022-10-11T09:43:42.258Z,1552.00
2022-10-11T09:44:42.426Z,1588.00
2022-10-11T09:45:45.716Z,1948.00
2022-10-11T09:46:43.778Z,2388.00
2022-10-11T09:47:42.974Z,3200.00
2022-10-11T09:48:43.138Z,2752.00
2022-10-11T09:49:43.346Z,1972.00
2022-10-11T09:50:43.501Z,1728.00
2022-10-11T09:51:43.681Z,1728.00
2022-10-11T09:52:43.880Z,1764.00
2022-10-11T09:53:44.042Z,1788.00
2022-10-11T09:54:44.241Z,1796.00
2022-10-11T09:55:44.393Z,1808.00
2022-10-11T09:56:44.572Z,1816.00
2022-10-11T09:57:44.754Z,1804.00
2022-10-11T09:58:44.944Z,1756.00
2022-10-11T09:59:45.119Z,1768.00
2022-10-11T10:00:45.297Z,1720.00
2022-10-11T10:01:45.532Z,1708.00
2022-10-11T10:02:45.635Z,1696.00
2022-10-11T10:03:45.829Z,1720.00
2022-10-11T10:04:45.976Z,1724.00
2022-10-11T10:05:46.156Z,1732.00
2022-10-11T10:06:46.335Z,1732.00
2022-10-11T10:07:46.513Z,1748.00
2022-10-11T10:08:46.707Z,1760.00
2022-10-11T10:09:46.852Z,1768.00
2022-10-11T10:10:47.028Z,1788.00
2022-10-11T10:11:47.207Z,1796.00
2022-10-11T10:12:47.378Z,1804.00
2022-10-11T10:13:47.577Z,1816.00
2022-10-11T10:14:47.719Z,1832.00
2022-10-11T10:15:47.941Z,1836.00
2022-10-11T10:16:48.073Z,1852.00
2022-10-11T10:17:48.269Z,1844.00
2022-10-11T10:18:48.442Z,1860.00
2022-10-11T10:19:48.620Z,1872.00
2022-10-11T10:20:48.791Z,1904.00
2022-10-11T10:21:48.976Z,1920.00
2022-10-11T10:22:49.204Z,1928.00
2022-10-11T10:23:49.344Z,1984.00
2022-10-11T10:24:49.520Z,1956.00
2022-10-11T10:25:49.705Z,1956.00
2022-10-11T10:26:49.896Z,1964.00
2022-10-11T10:27:50.074Z,1956.00
2022-10-11T10:28:50.599Z,2004.00
2022-10-11T10:29:50.393Z,612.00
2022-10-11T10:30:50.569Z,496.00
2022-10-11T10:32:51.925Z,500.00
2022-10-11T10:33:51.090Z,1404.00
2022-10-11T10:34:51.246Z,1388.00
2022-10-11T10:35:51.406Z,1324.00
2022-10-11T10:36:51.578Z,1292.00
2022-10-11T10:37:51.742Z,1304.00
2022-10-11T10:38:52.412Z,1416.00
2022-10-11T10:39:52.058Z,1444.00
2022-10-11T10:40:52.219Z,1468.00
2022-10-11T10:41:52.400Z,1508.00
2022-10-11T10:42:52.538Z,1140.00
2022-10-11T10:43:52.719Z,392.00
2022-10-11T10:44:52.911Z,1584.00
2022-10-11T10:45:53.080Z,396.00
2022-10-11T10:46:53.281Z,368.00
2022-10-11T10:47:53.422Z,404.00
2022-10-11T10:49:55.304Z,1192.00
2022-10-11T10:50:53.941Z,1476.00
2022-10-11T10:51:54.122Z,1560.00
2022-10-11T10:52:54.262Z,1388.00
2022-10-11T10:53:54.436Z,1592.00
2022-10-11T10:54:54.584Z,1588.00
2022-10-11T10:55:54.764Z,1636.00
2022-10-11T10:56:54.955Z,708.00
2022-10-11T10:57:55.106Z,2088.00
2022-10-11T10:58:55.284Z,716.00
2022-10-11T10:59:55.443Z,1852.00
2022-10-11T11:00:55.631Z,1112.00
2022-10-11T11:01:55.873Z,368.00
2022-10-11T11:02:56.052Z,424.00
2022-10-11T11:03:56.132Z,572.00
2022-10-11T11:04:56.362Z,416.00
2022-10-11T11:05:56.492Z,384.00
2022-10-11T11:06:56.699Z,316.00
2022-10-11T11:07:56.835Z,324.00
2022-10-11T11:08:57.031Z,364.00
2022-10-11T11:09:57.178Z,1700.00
2022-10-11T11:10:57.359Z,1672.00
2022-10-11T11:11:57.550Z,528.00
2022-10-11T11:12:57.739Z,812.00
2022-10-11T11:13:57.901Z,1752.00
2022-10-11T11:14:58.081Z,1712.00
2022-10-11T11:15:58.249Z,436.00
2022-10-11T11:16:58.441Z,672.00
2022-10-11T11:17:58.601Z,1780.00
2022-10-11T11:18:58.784Z,1812.00
2022-10-11T11:19:58.976Z,1904.00
2022-10-11T11:20:59.143Z,2072.00
2022-10-11T11:21:59.345Z,2148.00
2022-10-11T11:22:59.515Z,2220.00
2022-10-11T11:23:59.695Z,2688.00
2022-10-11T11:24:59.956Z,3328.00
2022-10-11T11:26:00.056Z,3856.00
2022-10-11T11:27:00.268Z,3796.00
2022-10-11T11:28:00.425Z,3068.00
2022-10-11T11:29:00.586Z,2680.00
2022-10-11T11:30:00.746Z,448.00
2022-10-11T11:31:00.938Z,592.00
2022-10-11T11:32:01.107Z,616.00
2022-10-11T11:33:01.269Z,388.00
2022-10-11T11:34:01.409Z,376.00
2022-10-11T11:35:01.593Z,516.00
2022-10-11T11:36:01.877Z,484.00
2022-10-11T11:37:01.924Z,1984.00
2022-10-11T11:38:06.227Z,1980.00
2022-10-11T11:39:02.296Z,1964.00
2022-10-11T11:40:02.476Z,1936.00
2022-10-11T11:41:02.953Z,1848.00
2022-10-11T11:42:02.800Z,1836.00
2022-10-11T11:43:03.003Z,1844.00
2022-10-11T11:44:03.170Z,1840.00
2022-10-11T11:45:03.352Z,428.00
2022-10-11T11:46:03.530Z,1744.00
2022-10-11T11:47:03.736Z,1916.00
2022-10-11T11:48:03.866Z,1908.00
2022-10-11T11:49:04.049Z,1880.00
2022-10-11T11:50:04.235Z,1848.00
2022-10-11T11:51:04.713Z,1868.00
2022-10-11T11:52:04.565Z,1848.00
2022-10-11T11:53:04.763Z,1852.00
2022-10-11T11:54:04.910Z,1876.00
2022-10-11T11:55:05.087Z,1940.00
2022-10-11T11:56:05.292Z,1780.00
2022-10-11T11:57:05.437Z,1700.00
2022-10-11T11:58:07.223Z,1628.00
2022-10-11T11:59:05.773Z,1688.00
2022-10-11T12:00:05.959Z,1880.00
2022-10-11T12:01:06.418Z,788.00
2022-10-11T12:02:06.387Z,608.00
2022-10-11T12:03:06.500Z,1824.00
2022-10-11T12:04:06.680Z,1856.00
2022-10-11T12:05:06.864Z,1708.00
2022-10-11T12:06:07.052Z,612.00
2022-10-11T12:07:22.124Z,536.00
2022-10-11T12:08:08.412Z,548.00
2022-10-11T12:09:07.574Z,1908.00
2022-10-11T12:10:07.764Z,1896.00
2022-10-11T12:11:08.142Z,712.00
2022-10-11T12:12:08.096Z,1868.00
2022-10-11T12:13:08.256Z,544.00
2022-10-11T12:14:08.457Z,1816.00
2022-10-11T12:15:08.645Z,1808.00
2022-10-11T12:16:08.809Z,1792.00
2022-10-11T12:17:08.998Z,1648.00
2022-10-11T12:18:09.146Z,652.00
2022-10-11T12:19:09.356Z,460.00
2022-10-11T12:20:09.562Z,432.00
2022-10-11T12:21:09.834Z,704.00
2022-10-11T12:22:09.887Z,1448.00
2022-10-11T12:23:10.038Z,1356.00
2022-10-11T12:24:10.198Z,1312.00
2022-10-11T12:25:13.799Z,1692.00
2022-10-11T12:26:11.563Z,892.00
2022-10-11T12:27:10.738Z,1804.00
2022-10-11T12:28:10.915Z,1904.00
2022-10-11T12:29:11.062Z,1888.00
2022-10-11T12:30:11.239Z,1980.00
2022-10-11T12:31:11.423Z,1984.00
2022-10-11T12:32:11.611Z,1892.00
2022-10-11T12:33:11.776Z,1868.00
2022-10-11T12:34:11.923Z,1832.00
2022-10-11T12:35:12.107Z,1784.00
2022-10-11T12:36:12.472Z,1924.00
2022-10-11T12:37:12.464Z,1988.00
2022-10-11T12:38:12.623Z,1844.00
2022-10-11T12:39:12.801Z,1928.00
2022-10-11T12:40:12.974Z,1992.00
2022-10-11T12:41:13.169Z,1900.00
2022-10-11T12:42:13.319Z,2032.00
2022-10-11T12:43:13.496Z,2044.00
2022-10-11T12:44:13.680Z,2064.00
2022-10-11T12:45:13.886Z,2072.00
2022-10-11T12:46:14.022Z,2032.00
2022-10-11T12:47:14.218Z,1968.00
2022-10-11T12:48:14.391Z,1868.00
2022-10-11T12:49:14.568Z,1920.00
2022-10-11T12:50:14.770Z,1884.00